Time;durP1;ratioP1;P1;durP2;ratioP2;P2;SDS_P1;SDS_P2;PMS_P1;PMS_P2;Temp;Humidity;BMP_temperature;BMP_pressure;BME280_temperature;BME280_humidity;BME280_pressure;Samples;Min_cycle;Max_cycle;Signal;HPM_P1;HPM_P2
2023/12/06 00:00:00;;;;;;;25.83;18.30;;;;;;;5.39;65.44;100987.44;5064617;28;20091;-67
2023/12/06 00:02:29;;;;;;;27.58;19.65;;;;;;;5.34;65.65;100989.81;5064020;28;20053;-67
2023/12/06 00:04:58;;;;;;;26.42;18.17;;;;;;;5.36;65.75;100990.47;5061303;28;20041;-68
2023/12/06 00:07:26;;;;;;;28.30;18.85;;;;;;;5.28;65.79;100992.41;5060678;28;20136;-68
2023/12/06 00:09:53;;;;;;;28.88;18.30;;;;;;;5.30;65.94;100988.53;5062769;28;20044;-68
2023/12/06 00:12:21;;;;;;;35.38;20.67;;;;;;;5.27;65.92;100996.06;5063130;28;20465;-67
2023/12/06 00:14:50;;;;;;;32.95;19.88;;;;;;;5.32;65.93;100999.84;5057877;28;20041;-68
2023/12/06 00:17:19;;;;;;;35.03;20.42;;;;;;;5.35;65.68;100999.47;5061531;28;20226;-68
2023/12/06 00:19:47;;;;;;;31.83;20.15;;;;;;;5.34;65.69;100999.66;5062380;28;20087;-67
2023/12/06 00:22:15;;;;;;;27.35;19.13;;;;;;;5.16;66.15;100986.72;5063418;28;20045;-68
2023/12/06 00:24:43;;;;;;;32.10;20.05;;;;;;;5.29;66.07;100997.53;5059141;28;20079;-68
2023/12/06 00:27:11;;;;;;;32.67;19.60;;;;;;;5.28;65.83;101005.72;5066200;28;20067;-67
2023/12/06 00:29:39;;;;;;;31.35;19.60;;;;;;;5.29;66.18;101007.38;5065471;28;20049;-67
2023/12/06 00:32:07;;;;;;;30.40;19.98;;;;;;;5.22;66.42;101009.94;5066390;28;20053;-68
2023/12/06 00:34:36;;;;;;;31.20;20.70;;;;;;;5.23;66.59;101007.09;5066340;28;20178;-67
2023/12/06 00:37:04;;;;;;;31.45;20.65;;;;;;;5.20;66.45;101006.66;5058479;28;20045;-67
2023/12/06 00:39:32;;;;;;;31.48;20.20;;;;;;;5.26;66.14;101021.06;5061788;28;20053;-67
2023/12/06 00:42:00;;;;;;;31.08;20.00;;;;;;;5.30;66.16;101011.69;5065272;28;20045;-67
2023/12/06 00:44:28;;;;;;;36.20;20.70;;;;;;;5.30;65.96;101015.19;5065835;28;20056;-67
2023/12/06 00:46:56;;;;;;;32.03;20.67;;;;;;;5.29;66.12;101020.69;5064691;28;20048;-68
2023/12/06 00:49:24;;;;;;;31.10;19.70;;;;;;;5.27;66.21;101022.72;5061540;28;20053;-67
2023/12/06 00:51:53;;;;;;;32.75;20.80;;;;;;;5.29;65.98;101029.50;5063744;28;20411;-68
2023/12/06 00:54:21;;;;;;;33.03;20.67;;;;;;;5.33;66.39;101027.31;5076834;28;20072;-68
2023/12/06 00:56:49;;;;;;;30.30;19.70;;;;;;;5.35;66.12;101030.63;5064986;28;20045;-68
2023/12/06 00:59:17;;;;;;;32.30;19.98;;;;;;;5.27;66.26;101039.53;5052066;28;20120;-68
2023/12/06 01:01:44;;;;;;;29.30;19.10;;;;;;;5.24;66.26;101042.56;5063155;28;20044;-68
2023/12/06 01:04:12;;;;;;;28.85;19.45;;;;;;;5.23;66.61;101040.91;5065391;28;20075;-68
2023/12/06 01:06:40;;;;;;;31.65;19.30;;;;;;;5.12;66.65;101044.88;5064264;28;20045;-68
2023/12/06 01:09:09;;;;;;;29.60;19.52;;;;;;;5.17;66.69;101042.50;5057995;28;20055;-67
2023/12/06 01:11:37;;;;;;;28.48;19.52;;;;;;;5.24;66.47;101050.56;5073879;28;20457;-67
2023/12/06 01:14:05;;;;;;;33.63;20.88;;;;;;;5.32;66.31;101057.63;5068237;28;20052;-67
2023/12/06 01:16:33;;;;;;;31.02;19.92;;;;;;;5.27;66.45;101060.03;5060450;28;20053;-67
2023/12/06 01:19:00;;;;;;;31.40;20.75;;;;;;;5.30;66.47;101062.31;5058346;28;20049;-68
2023/12/06 01:21:28;;;;;;;27.02;17.88;;;;;;;5.28;66.66;101065.16;5054716;28;20042;-68
2023/12/06 01:23:56;;;;;;;29.23;18.55;;;;;;;5.26;66.28;101061.03;5061809;28;20079;-68
2023/12/06 01:26:25;;;;;;;33.45;20.40;;;;;;;5.29;66.51;101066.81;5059538;28;20049;-68
2023/12/06 01:28:53;;;;;;;29.17;18.45;;;;;;;5.27;66.72;101068.84;5067056;28;20045;-67
2023/12/06 01:31:21;;;;;;;29.52;19.25;;;;;;;5.31;66.56;101082.63;5062940;28;20045;-67
2023/12/06 01:33:48;;;;;;;27.45;17.67;;;;;;;5.27;66.85;101079.50;5063931;28;20045;-67
2023/12/06 01:36:17;;;;;;;28.35;18.63;;;;;;;5.21;66.43;101073.06;5058701;28;20041;-67
2023/12/06 01:38:44;;;;;;;30.25;18.70;;;;;;;5.29;66.65;101082.81;5058949;28;20048;-67
2023/12/06 01:41:12;;;;;;;24.25;16.73;;;;;;;5.31;66.69;101086.13;5065208;28;20051;-67
2023/12/06 01:43:44;;;;;;;26.67;18.65;;;;;;;5.31;66.69;101086.13;5063840;28;20075;-67
2023/12/06 01:46:12;;;;;;;26.60;17.83;;;;;;;5.38;66.35;101086.22;5063586;28;20060;-67
2023/12/06 01:48:41;;;;;;;29.02;18.50;;;;;;;5.33;66.47;101092.09;5060725;28;20045;-67
2023/12/06 01:51:10;;;;;;;25.38;16.92;;;;;;;5.34;66.46;101098.25;5050752;28;20112;-68
2023/12/06 01:53:38;;;;;;;26.55;16.88;;;;;;;5.34;66.82;101099.09;5055105;28;20324;-67
2023/12/06 01:56:07;;;;;;;24.38;16.58;;;;;;;5.31;66.57;101101.28;5060358;28;20045;-67
2023/12/06 01:58:37;;;;;;;25.35;16.75;;;;;;;5.32;66.62;101110.94;5055536;28;20457;-68
2023/12/06 02:01:07;;;;;;;28.23;17.85;;;;;;;5.32;66.60;101101.09;5062742;28;20067;-68
2023/12/06 02:03:35;;;;;;;30.27;17.45;;;;;;;5.31;66.62;101106.63;5064684;28;20127;-68
2023/12/06 02:06:06;;;;;;;25.83;17.20;;;;;;;5.35;66.67;101103.41;5063755;28;20055;-68
2023/12/06 02:08:36;;;;;;;24.83;15.85;;;;;;;5.35;66.37;101107.91;5060188;28;20095;-67
2023/12/06 02:11:04;;;;;;;24.90;16.58;;;;;;;5.32;66.53;101110.94;5060027;28;20045;-68
2023/12/06 02:13:32;;;;;;;23.77;15.20;;;;;;;5.30;66.92;101115.63;5047709;28;20064;-68
2023/12/06 02:16:01;;;;;;;23.92;15.85;;;;;;;5.30;66.77;101110.28;5060913;28;20040;-68
2023/12/06 02:18:32;;;;;;;26.20;16.83;;;;;;;5.28;66.92;101118.47;5059410;28;20056;-68
2023/12/06 02:21:00;;;;;;;21.98;16.23;;;;;;;5.28;66.85;101123.78;5066783;28;20136;-68
2023/12/06 02:23:34;;;;;;;20.95;14.23;;;;;;;5.27;66.87;101116.81;5066842;28;20441;-68
2023/12/06 02:26:04;;;;;;;22.17;14.43;;;;;;;5.33;66.82;101124.06;5063272;28;20045;-67
2023/12/06 02:28:31;;;;;;;22.55;14.80;;;;;;;5.31;67.05;101122.59;5060546;28;20053;-68
2023/12/06 02:30:59;;;;;;;23.58;14.70;;;;;;;5.28;66.99;101123.78;5057385;28;20250;-68
2023/12/06 02:33:28;;;;;;;20.08;14.00;;;;;;;5.26;67.25;101115.16;5066636;28;20045;-68
2023/12/06 02:35:59;;;;;;;21.38;13.73;;;;;;;5.26;67.11;101115.16;5063084;28;20052;-68
2023/12/06 02:38:28;;;;;;;21.52;14.25;;;;;;;5.26;67.04;101114.31;5069331;28;20048;-68
2023/12/06 02:40:59;;;;;;;19.60;12.45;;;;;;;5.32;67.03;101122.41;5063577;28;20052;-68
2023/12/06 02:43:28;;;;;;;22.95;14.00;;;;;;;5.30;66.93;101121.78;5044375;28;20057;-67
2023/12/06 02:45:56;;;;;;;19.92;13.30;;;;;;;5.32;66.76;101127.75;5061678;28;20188;-67
2023/12/06 02:48:24;;;;;;;20.80;13.32;;;;;;;5.35;66.79;101132.72;5062769;28;20106;-67
2023/12/06 02:50:52;;;;;;;21.55;13.48;;;;;;;5.33;66.67;101124.06;5058577;28;20049;-67
2023/12/06 02:53:19;;;;;;;19.13;13.55;;;;;;;5.33;66.77;101126.75;5065917;28;20110;-67
2023/12/06 02:55:47;;;;;;;19.55;13.07;;;;;;;5.29;66.97;101124.63;5061947;28;20220;-67
2023/12/06 02:58:15;;;;;;;20.85;12.88;;;;;;;5.27;67.18;101132.78;5062141;28;20045;-67
2023/12/06 03:00:44;;;;;;;19.65;12.65;;;;;;;5.24;67.03;101128.66;5048258;28;20095;-68
2023/12/06 03:03:12;;;;;;;22.13;12.75;;;;;;;5.27;67.28;101131.97;5062794;28;20059;-68
2023/12/06 03:05:40;;;;;;;19.38;13.38;;;;;;;5.27;67.23;101129.31;5069112;28;20072;-68
2023/12/06 03:08:08;;;;;;;18.20;12.77;;;;;;;5.27;67.38;101130.13;5052120;28;20122;-68
2023/12/06 03:10:36;;;;;;;16.20;11.50;;;;;;;5.27;67.29;101127.47;5058918;28;20055;-68
2023/12/06 03:13:04;;;;;;;18.35;11.98;;;;;;;5.30;67.19;101121.78;5062372;28;20041;-68
2023/12/06 03:15:32;;;;;;;20.73;12.18;;;;;;;5.30;67.10;101121.78;5058835;28;20041;-68
2023/12/06 03:18:01;;;;;;;20.40;11.45;;;;;;;5.30;67.15;101121.78;5062301;28;20523;-68
2023/12/06 03:20:29;;;;;;;16.48;11.55;;;;;;;5.28;67.09;101123.78;5060568;28;20085;-68
2023/12/06 03:22:56;;;;;;;18.73;11.93;;;;;;;5.31;67.30;101122.59;5053457;28;20069;-68
2023/12/06 03:25:24;;;;;;;16.58;11.45;;;;;;;5.29;67.18;101116.63;5075315;28;20428;-68
2023/12/06 03:27:52;;;;;;;16.67;10.93;;;;;;;5.30;67.28;101116.44;5065067;28;20045;-68
2023/12/06 03:30:20;;;;;;;18.42;12.10;;;;;;;5.29;66.99;101128.13;5060579;28;20053;-68
2023/12/06 03:33:02;;;;;;;18.70;10.70;;;;;;;5.33;67.29;101137.41;5060972;28;20136;-68
2023/12/06 03:35:30;;;;;;;15.85;10.35;;;;;;;5.36;67.13;101139.72;5060801;28;20057;-69
2023/12/06 03:37:57;;;;;;;17.58;11.60;;;;;;;5.36;66.96;101142.38;5056210;28;20041;-69
2023/12/06 03:40:25;;;;;;;16.27;10.75;;;;;;;5.38;66.91;101152.84;5066732;28;20565;-68
2023/12/06 03:42:53;;;;;;;15.38;10.32;;;;;;;5.33;67.06;101152.56;5062229;28;20048;-69
2023/12/06 03:45:21;;;;;;;16.70;10.85;;;;;;;5.35;67.04;101154.03;5068899;28;20040;-68
2023/12/06 03:47:49;;;;;;;16.27;11.55;;;;;;;5.32;67.26;101150.91;5070811;28;20080;-68
2023/12/06 03:50:19;;;;;;;15.57;10.55;;;;;;;5.34;67.19;101155.06;5063447;28;20097;-68
2023/12/06 03:52:46;;;;;;;17.98;11.13;;;;;;;5.35;67.25;101145.22;5060619;28;20049;-67
2023/12/06 03:55:14;;;;;;;15.63;10.90;;;;;;;5.35;67.35;101161.22;5066732;28;20045;-69
2023/12/06 03:57:42;;;;;;;15.50;10.80;;;;;;;5.28;67.75;101155.78;5054376;28;20401;-68
2023/12/06 04:00:11;;;;;;;16.65;10.25;;;;;;;5.30;67.47;101166.25;5064345;28;20044;-67
2023/12/06 04:02:39;;;;;;;17.17;11.02;;;;;;;5.31;67.31;101168.72;5057603;28;20057;-68
2023/12/06 04:05:08;;;;;;;15.05;10.75;;;;;;;5.31;67.54;101170.56;5064598;28;20040;-68
2023/12/06 04:07:38;;;;;;;16.50;10.68;;;;;;;5.31;67.79;101166.06;5065306;28;20041;-67
2023/12/06 04:10:06;;;;;;;16.15;10.20;;;;;;;5.29;67.54;101169.91;5063086;28;20063;-68
2023/12/06 04:12:34;;;;;;;15.55;10.55;;;;;;;5.30;67.56;101172.41;5064680;28;20045;-68
2023/12/06 04:15:04;;;;;;;16.80;11.77;;;;;;;5.32;67.70;101174.88;5066349;28;20143;-68
2023/12/06 04:17:32;;;;;;;15.50;10.38;;;;;;;5.31;67.64;101173.22;5068483;28;20064;-68
2023/12/06 04:20:00;;;;;;;18.17;11.82;;;;;;;5.29;67.57;101168.09;5066416;28;20065;-68
2023/12/06 04:22:28;;;;;;;16.02;10.75;;;;;;;5.31;67.32;101175.91;5061572;28;20075;-68
2023/12/06 04:24:57;;;;;;;13.60;9.80;;;;;;;5.30;67.82;101177.72;5070120;28;20052;-68
2023/12/06 04:27:25;;;;;;;15.63;10.60;;;;;;;5.31;67.61;101176.72;5063688;28;20041;-68
2023/12/06 04:29:52;;;;;;;14.68;9.65;;;;;;;5.30;67.69;101180.41;5065197;28;20099;-68
2023/12/06 04:32:20;;;;;;;16.25;10.27;;;;;;;5.31;68.05;101187.38;5065511;28;20114;-68
2023/12/06 04:34:53;;;;;;;16.67;10.38;;;;;;;5.31;67.84;101181.22;5065950;28;20052;-68
2023/12/06 04:37:20;;;;;;;14.43;10.80;;;;;;;5.35;67.67;101178.03;5065298;28;20059;-69
2023/12/06 04:39:49;;;;;;;13.05;9.70;;;;;;;5.31;67.71;101179.38;5066823;28;20136;-68
2023/12/06 04:42:18;;;;;;;15.85;9.60;;;;;;;5.32;67.65;101190.88;5068001;28;20368;-68
2023/12/06 04:44:46;;;;;;;15.38;9.98;;;;;;;5.32;67.95;101193.53;5064488;28;20053;-68
2023/12/06 04:47:14;;;;;;;16.42;10.35;;;;;;;5.31;67.94;101191.88;5065752;28;20045;-68
2023/12/06 04:49:41;;;;;;;14.00;9.38;;;;;;;5.32;67.94;101196.22;5060469;28;20184;-68
2023/12/06 04:52:09;;;;;;;16.05;9.82;;;;;;;5.31;68.01;101189.22;5059755;28;20045;-68
2023/12/06 04:54:37;;;;;;;20.52;10.90;;;;;;;5.33;67.92;101196.03;5064096;28;20049;-68
2023/12/06 04:57:05;;;;;;;18.13;10.35;;;;;;;5.33;67.94;101195.19;5058526;28;20053;-68
2023/12/06 04:59:34;;;;;;;15.38;10.23;;;;;;;5.32;68.00;101201.53;5062284;28;20045;-68
2023/12/06 05:02:03;;;;;;;14.32;9.77;;;;;;;5.33;68.18;101205.88;5063394;28;20044;-68
2023/12/06 05:04:30;;;;;;;13.32;9.68;;;;;;;5.34;68.13;101213.69;5065330;28;20395;-68
2023/12/06 05:06:58;;;;;;;16.15;10.15;;;;;;;5.32;67.95;101205.03;5065758;28;20044;-68
2023/12/06 05:09:26;;;;;;;16.48;9.93;;;;;;;5.32;68.18;101210.38;5071754;28;20083;-68
2023/12/06 05:11:55;;;;;;;17.65;10.25;;;;;;;5.31;68.09;101199.88;5065380;28;20468;-68
2023/12/06 05:14:23;;;;;;;13.52;9.73;;;;;;;5.36;67.83;101216.16;5059101;28;20067;-70
2023/12/06 05:16:53;;;;;;;15.73;9.98;;;;;;;5.24;68.28;101203.25;5068203;28;20131;-68
2023/12/06 05:19:20;;;;;;;20.48;10.57;;;;;;;5.34;68.28;101219.00;5062682;28;20115;-69
2023/12/06 05:21:48;;;;;;;17.92;10.43;;;;;;;5.34;68.35;101221.69;5065423;28;20044;-69
2023/12/06 05:24:16;;;;;;;14.63;10.00;;;;;;;5.34;68.47;101226.19;5064964;28;20052;-69
2023/12/06 05:26:45;;;;;;;16.27;11.18;;;;;;;5.37;68.49;101233.81;5070056;28;20063;-68
2023/12/06 05:29:13;;;;;;;16.15;10.27;;;;;;;5.37;68.71;101223.16;5060428;28;20049;-68
2023/12/06 05:31:40;;;;;;;19.23;10.82;;;;;;;5.34;68.68;101237.66;5064076;28;20049;-68
2023/12/06 05:34:09;;;;;;;18.55;10.80;;;;;;;5.33;68.71;101236.00;5064868;28;20133;-68
2023/12/06 05:36:37;;;;;;;18.38;10.52;;;;;;;5.37;68.93;101229.31;5063939;28;20064;-68
2023/12/06 05:39:05;;;;;;;16.17;10.88;;;;;;;5.35;69.03;101226.00;5062286;28;20052;-68
2023/12/06 05:41:33;;;;;;;17.38;10.90;;;;;;;5.35;68.80;101230.50;5069620;28;20102;-68
2023/12/06 05:44:01;;;;;;;15.77;10.65;;;;;;;5.34;69.18;101229.66;5064671;28;20057;-68
2023/12/06 05:46:29;;;;;;;20.45;10.85;;;;;;;5.37;68.96;101231.16;5062654;28;20079;-67
2023/12/06 05:48:57;;;;;;;16.85;9.88;;;;;;;5.38;68.85;101235.47;5056196;28;20072;-68
2023/12/06 05:51:26;;;;;;;20.00;10.90;;;;;;;5.38;69.23;101240.81;5058782;28;20496;-68
2023/12/06 05:53:54;;;;;;;15.98;10.93;;;;;;;5.37;69.42;101241.81;5054974;28;20049;-68
2023/12/06 05:56:22;;;;;;;18.70;11.13;;;;;;;5.36;69.19;101246.31;5070837;28;20044;-67
2023/12/06 05:58:50;;;;;;;18.52;10.75;;;;;;;5.36;69.26;101248.16;5064292;28;20143;-67
2023/12/06 06:01:18;;;;;;;21.70;10.57;;;;;;;5.35;69.38;101244.66;5058920;28;20057;-67
2023/12/06 06:03:45;;;;;;;17.73;11.10;;;;;;;5.45;69.22;101250.56;5060184;28;20041;-67
2023/12/06 06:06:16;;;;;;;16.73;11.45;;;;;;;5.60;68.97;101249.78;4710290;28;10000814;-67
2023/12/06 06:08:45;;;;;;;19.13;11.02;;;;;;;5.76;68.26;101257.66;5056276;28;20048;-67
2023/12/06 06:11:13;;;;;;;15.38;10.82;;;;;;;5.95;67.80;101257.19;5061446;28;20094;-68
2023/12/06 06:13:41;;;;;;;14.93;9.30;;;;;;;6.12;67.04;101260.50;5054245;28;20079;-67
2023/12/06 06:16:09;;;;;;;18.55;11.43;;;;;;;6.28;66.20;101255.00;5052712;28;20048;-67
2023/12/06 06:18:37;;;;;;;15.45;10.80;;;;;;;6.43;65.99;101260.34;5060273;28;20041;-67
2023/12/06 06:21:05;;;;;;;18.23;10.32;;;;;;;6.40;66.05;101256.19;5057007;28;20073;-68
2023/12/06 06:23:33;;;;;;;13.77;10.02;;;;;;;6.36;66.17;101251.41;5056115;28;20083;-67
2023/12/06 06:26:03;;;;;;;19.08;11.45;;;;;;;6.30;66.52;101260.16;5052203;28;20442;-67
2023/12/06 06:28:31;;;;;;;16.77;10.30;;;;;;;6.23;66.25;101261.91;5060720;28;20122;-68
2023/12/06 06:31:01;;;;;;;15.32;10.52;;;;;;;6.22;66.88;101277.09;5052726;28;20060;-68
2023/12/06 06:33:28;;;;;;;17.58;10.35;;;;;;;6.22;67.22;101274.41;5057663;28;20116;-67
2023/12/06 06:35:56;;;;;;;16.00;10.52;;;;;;;6.20;67.00;101282.59;5051597;28;20057;-68
2023/12/06 06:38:24;;;;;;;16.38;10.23;;;;;;;6.17;66.99;101290.97;5055023;28;20140;-64
2023/12/06 06:40:52;;;;;;;13.63;9.68;;;;;;;6.11;67.68;101290.88;5060980;28;20040;-64
2023/12/06 06:43:21;;;;;;;16.13;10.25;;;;;;;6.03;67.79;101293.63;5047053;28;20461;-65
2023/12/06 06:45:50;;;;;;;16.80;9.50;;;;;;;5.93;68.23;101298.38;5048934;28;20063;-66
2023/12/06 06:48:18;;;;;;;13.82;9.45;;;;;;;5.89;68.45;101289.91;5058181;28;20041;-68
2023/12/06 06:50:46;;;;;;;17.08;10.35;;;;;;;5.85;68.49;101297.41;5049542;28;20076;-65
2023/12/06 06:53:14;;;;;;;17.45;10.02;;;;;;;5.82;69.05;101295.09;5054425;28;20079;-68
2023/12/06 06:55:42;;;;;;;18.02;11.02;;;;;;;5.80;68.80;101293.63;5054758;28;20073;-68
2023/12/06 06:58:10;;;;;;;12.40;9.65;;;;;;;5.67;68.77;101282.72;5064551;28;20056;-67
2023/12/06 07:00:39;;;;;;;16.55;9.45;;;;;;;5.80;68.67;101306.97;5058131;28;20057;-70
2023/12/06 07:03:07;;;;;;;17.95;9.73;;;;;;;5.79;68.46;101305.31;5056901;28;20052;-69
2023/12/06 07:05:35;;;;;;;17.33;10.45;;;;;;;5.80;68.64;101307.78;5061151;28;20049;-69
2023/12/06 07:08:03;;;;;;;15.00;9.40;;;;;;;5.75;68.64;101312.81;5055744;28;20073;-63
2023/12/06 07:10:34;;;;;;;15.90;9.63;;;;;;;5.73;69.10;101314.00;5051969;28;20053;-68
2023/12/06 07:13:02;;;;;;;16.08;10.48;;;;;;;5.70;69.16;101312.53;5053101;28;20055;-67
2023/12/06 07:15:30;;;;;;;13.80;9.93;;;;;;;5.68;69.06;101305.72;5056749;28;20512;-68
2023/12/06 07:17:59;;;;;;;14.85;9.20;;;;;;;5.68;69.14;101314.56;5057237;28;20053;-68
2023/12/06 07:20:27;;;;;;;16.75;10.45;;;;;;;5.66;69.28;101316.56;5054479;28;20072;-67
2023/12/06 07:23:10;;;;;;;13.68;8.98;;;;;;;5.66;69.47;101315.72;5061737;28;20125;-66
2023/12/06 07:25:38;;;;;;;13.85;8.95;;;;;;;5.57;69.03;101313.13;5057096;28;20049;-67
2023/12/06 07:28:05;;;;;;;15.65;9.65;;;;;;;5.65;69.29;101335.41;5056471;28;20050;-67
2023/12/06 07:30:33;;;;;;;15.07;9.82;;;;;;;5.64;69.30;101331.09;5056285;28;20083;-68
2023/12/06 07:33:02;;;;;;;17.08;10.48;;;;;;;5.63;69.57;101329.41;5056710;28;20408;-67
2023/12/06 07:35:30;;;;;;;17.48;10.77;;;;;;;5.64;69.26;101333.75;5064704;28;20060;-66
2023/12/06 07:37:58;;;;;;;15.25;10.18;;;;;;;5.62;69.34;101333.94;5053873;28;20051;-67
2023/12/06 07:40:26;;;;;;;14.32;9.80;;;;;;;5.64;69.40;101333.75;5060404;28;20041;-66
2023/12/06 07:42:54;;;;;;;16.88;9.73;;;;;;;5.63;69.28;101332.91;5058996;28;20052;-65
2023/12/06 07:45:22;;;;;;;17.88;10.38;;;;;;;5.63;69.46;101324.09;5058531;28;20053;-66
2023/12/06 07:47:50;;;;;;;14.93;9.20;;;;;;;5.62;69.12;101328.59;5058191;28;20049;-66
2023/12/06 07:50:20;;;;;;;15.48;10.20;;;;;;;5.64;69.24;101337.25;5057758;28;20041;-65
2023/12/06 07:52:50;;;;;;;17.60;11.55;;;;;;;5.63;69.28;101340.09;5068755;28;20056;-65
2023/12/06 07:55:17;;;;;;;13.82;9.48;;;;;;;5.62;69.34;101339.25;5065463;28;20045;-66
2023/12/06 07:57:48;;;;;;;13.85;9.38;;;;;;;5.61;69.66;101344.78;4709995;28;10000258;-64
2023/12/06 08:00:19;;;;;;;16.17;9.63;;;;;;;5.61;69.30;101353.59;5059266;28;20068;-65
2023/12/06 08:02:47;;;;;;;14.32;10.05;;;;;;;5.60;69.50;101351.94;5057370;28;20056;-65
2023/12/06 08:05:16;;;;;;;17.20;9.63;;;;;;;5.60;69.00;101354.59;5061081;28;20057;-65
2023/12/06 08:07:45;;;;;;;15.60;9.70;;;;;;;5.61;69.45;101355.44;5055725;28;20087;-65
2023/12/06 08:10:22;;;;;;;14.57;9.70;;;;;;;5.60;69.24;101354.59;5060071;28;20120;-64
2023/12/06 08:12:53;;;;;;;14.68;10.05;;;;;;;5.62;69.48;101357.09;5063752;28;20048;-64
2023/12/06 08:15:22;;;;;;;14.10;9.73;;;;;;;5.64;69.30;101363.91;5052875;28;20042;-66
2023/12/06 08:17:50;;;;;;;17.27;9.68;;;;;;;5.63;69.39;101366.75;5046993;28;20124;-66
2023/12/06 08:20:18;;;;;;;18.08;10.80;;;;;;;5.62;69.24;101371.25;5055472;28;20049;-65
2023/12/06 08:22:48;;;;;;;20.75;11.25;;;;;;;5.62;69.37;101370.44;5055139;28;20117;-66
2023/12/06 08:25:16;;;;;;;16.42;9.55;;;;;;;5.63;69.08;101372.09;5066122;28;20048;-65
2023/12/06 08:27:44;;;;;;;18.13;9.73;;;;;;;5.62;69.24;101375.75;5061311;28;20099;-66
2023/12/06 08:30:12;;;;;;;16.95;9.98;;;;;;;5.62;69.18;101381.91;5057002;28;20045;-66
2023/12/06 08:32:40;;;;;;;17.20;9.82;;;;;;;5.61;69.33;101372.25;5050907;28;20045;-64
2023/12/06 08:35:09;;;;;;;18.00;8.98;;;;;;;5.62;69.14;101381.09;5061769;28;20087;-62
2023/12/06 08:37:36;;;;;;;15.90;10.40;;;;;;;5.60;69.30;101377.78;5062624;28;20447;-62
2023/12/06 08:40:09;;;;;;;16.55;10.05;;;;;;;5.62;69.22;101383.75;5073191;28;20045;-62
2023/12/06 08:42:37;;;;;;;18.30;10.40;;;;;;;5.61;69.39;101384.75;5062248;28;20079;-64
2023/12/06 08:45:06;;;;;;;19.75;9.15;;;;;;;5.61;69.17;101387.44;5052155;28;20057;-64
2023/12/06 08:47:34;;;;;;;16.50;10.43;;;;;;;5.61;69.31;101392.75;5061644;28;20060;-65
2023/12/06 08:50:04;;;;;;;20.80;11.55;;;;;;;5.62;69.41;101392.59;5054995;28;20045;-64
2023/12/06 08:52:34;;;;;;;19.40;10.63;;;;;;;5.62;69.84;101391.75;5051616;28;20057;-64
2023/12/06 08:55:03;;;;;;;24.42;12.10;;;;;;;5.63;69.45;101402.25;5058526;28;20045;-64
2023/12/06 08:57:33;;;;;;;15.95;10.73;;;;;;;5.63;69.53;101404.09;5065129;28;20048;-64
2023/12/06 09:00:00;;;;;;;18.95;9.50;;;;;;;5.65;69.88;101407.41;5064274;28;20131;-64
2023/12/06 09:02:28;;;;;;;21.00;11.90;;;;;;;5.67;69.64;101405.38;5064435;28;20049;-64
2023/12/06 09:04:56;;;;;;;16.92;10.43;;;;;;;5.81;69.02;101413.47;5062832;28;20128;-64
2023/12/06 09:07:25;;;;;;;18.75;10.68;;;;;;;5.98;68.56;101418.72;5064090;28;20056;-64
2023/12/06 09:09:53;;;;;;;18.67;9.68;;;;;;;6.15;67.87;101415.75;5064001;28;20151;-64
2023/12/06 09:12:22;;;;;;;17.40;9.18;;;;;;;6.33;67.22;101417.28;5063951;28;20049;-64
2023/12/06 09:14:51;;;;;;;16.77;9.50;;;;;;;6.49;66.86;101423.31;5062658;28;20120;-64
2023/12/06 09:17:19;;;;;;;16.23;9.38;;;;;;;6.68;66.22;101421.97;5067899;28;20048;-65
2023/12/06 09:19:48;;;;;;;17.17;10.70;;;;;;;6.84;65.43;101424.47;5063566;28;20045;-65
2023/12/06 09:22:17;;;;;;;15.93;9.45;;;;;;;7.02;65.05;101433.94;5059301;28;20064;-65
2023/12/06 09:24:48;;;;;;;16.27;9.68;;;;;;;7.17;64.42;101432.09;5060724;28;20060;-64
2023/12/06 09:27:16;;;;;;;14.90;9.50;;;;;;;7.28;64.08;101425.44;5064884;28;20075;-64
2023/12/06 09:29:45;;;;;;;13.52;9.13;;;;;;;7.40;63.29;101423.94;5063580;28;20068;-64
2023/12/06 09:32:14;;;;;;;12.65;8.35;;;;;;;7.48;64.01;101431.88;5064830;28;20470;-65
2023/12/06 09:34:42;;;;;;;16.27;9.48;;;;;;;7.53;62.83;101433.97;5064957;28;20107;-65
2023/12/06 09:37:15;;;;;;;13.48;8.73;;;;;;;7.64;63.00;101430.81;5063688;28;20104;-64
2023/12/06 09:39:43;;;;;;;16.10;9.57;;;;;;;7.66;62.47;101426.94;5063693;28;20037;-65
2023/12/06 09:42:12;;;;;;;18.88;9.63;;;;;;;7.72;62.55;101436.06;5063850;28;20069;-65
2023/12/06 09:44:42;;;;;;;17.02;8.52;;;;;;;7.77;62.42;101441.69;5061882;28;20049;-65
2023/12/06 09:47:11;;;;;;;12.68;7.72;;;;;;;7.79;61.94;101447.66;5064028;28;20140;-63
2023/12/06 09:49:40;;;;;;;12.20;8.55;;;;;;;7.82;62.17;101452.63;5063207;28;20105;-65
2023/12/06 09:52:12;;;;;;;17.27;8.73;;;;;;;7.87;62.56;101457.44;5060030;28;20049;-65
2023/12/06 09:54:41;;;;;;;16.77;8.65;;;;;;;7.94;62.06;101448.44;5060699;28;20083;-65
2023/12/06 09:57:10;;;;;;;14.00;8.43;;;;;;;7.97;62.31;101449.91;5062125;28;20049;-63
2023/12/06 09:59:38;;;;;;;11.55;7.70;;;;;;;7.90;62.32;101449.84;5061710;28;20045;-65
2023/12/06 10:02:06;;;;;;;18.90;8.70;;;;;;;8.02;62.23;101458.22;5062682;28;20072;-65
2023/12/06 10:04:34;;;;;;;16.48;8.63;;;;;;;8.06;62.05;101454.97;5053665;28;20041;-67
2023/12/06 10:07:04;;;;;;;13.45;8.10;;;;;;;8.09;61.85;101457.25;5064265;28;20107;-67
2023/12/06 10:09:32;;;;;;;15.20;9.10;;;;;;;8.11;61.35;101454.38;5062959;28;20112;-70
2023/12/06 10:12:10;;;;;;;13.85;8.05;;;;;;;8.13;61.67;101461.22;5062427;28;20045;-66
2023/12/06 10:14:38;;;;;;;14.80;7.95;;;;;;;8.13;61.36;101453.19;5062613;28;20087;-69
2023/12/06 10:17:06;;;;;;;12.52;7.53;;;;;;;8.18;61.68;101459.81;5061541;28;20453;-69
2023/12/06 10:19:34;;;;;;;14.30;7.45;;;;;;;8.22;61.21;101463.75;5063217;28;20111;-70
2023/12/06 10:22:02;;;;;;;10.88;7.25;;;;;;;8.13;61.07;101466.56;5059555;28;20045;-72
2023/12/06 10:24:31;;;;;;;13.63;7.78;;;;;;;8.14;61.34;101462.88;5063595;28;20049;-71
2023/12/06 10:27:03;;;;;;;14.43;7.82;;;;;;;8.19;60.97;101464.97;5063297;28;20564;-71
2023/12/06 10:29:31;;;;;;;16.88;7.30;;;;;;;8.22;61.07;101461.91;5062725;28;20452;-70
2023/12/06 10:31:59;;;;;;;12.88;7.03;;;;;;;8.28;60.31;101455.78;5062461;28;20075;-70
2023/12/06 10:34:29;;;;;;;12.32;7.10;;;;;;;8.31;60.87;101459.94;5063344;28;20071;-69
2023/12/06 10:36:59;;;;;;;12.70;7.07;;;;;;;8.23;60.52;101468.94;5062868;28;20049;-68
2023/12/06 10:39:29;;;;;;;13.93;6.72;;;;;;;8.13;61.57;101473.78;5061802;28;20068;-67
2023/12/06 10:42:01;;;;;;;11.48;6.45;;;;;;;7.96;62.29;101459.78;5059308;28;20064;-68
2023/12/06 10:44:29;;;;;;;13.13;7.18;;;;;;;7.78;62.78;101468.25;5060285;28;20059;-66
2023/12/06 10:46:58;;;;;;;11.98;7.50;;;;;;;7.59;62.73;101463.47;5062953;28;20057;-68
2023/12/06 10:49:37;;;;;;;17.02;7.43;;;;;;;7.46;63.13;101460.66;5060940;28;20132;-67
2023/12/06 10:52:07;;;;;;;16.90;7.70;;;;;;;7.38;63.88;101455.41;5055660;28;20056;-66
2023/12/06 10:54:35;;;;;;;12.38;7.38;;;;;;;7.28;63.86;101458.34;5061222;28;20056;-68
2023/12/06 10:57:06;;;;;;;10.35;6.47;;;;;;;7.28;64.23;101457.53;5062615;28;20497;-67
2023/12/06 10:59:36;;;;;;;12.43;6.15;;;;;;;7.46;63.52;101455.28;5061559;28;20123;-67
2023/12/06 11:02:10;;;;;;;13.60;7.10;;;;;;;7.63;63.51;101458.59;4835002;28;10001099;-66
2023/12/06 11:04:44;;;;;;;13.38;6.72;;;;;;;7.80;62.40;101458.19;5056135;28;20254;-68
2023/12/06 11:07:25;;;;;;;12.05;6.80;;;;;;;7.96;62.01;101456.28;5058281;28;20117;-65
2023/12/06 11:10:02;;;;;;;14.43;7.03;;;;;;;8.21;61.30;101456.75;5055165;28;20668;-64
2023/12/06 11:12:40;;;;;;;11.18;6.55;;;;;;;8.40;61.01;101461.50;5053011;28;20053;-66
2023/12/06 11:15:23;;;;;;;15.57;7.15;;;;;;;8.52;60.79;101454.59;5056927;28;20079;-66
2023/12/06 11:18:01;;;;;;;14.32;6.72;;;;;;;8.59;60.29;101468.03;5063244;28;20102;-66
2023/12/06 11:20:31;;;;;;;10.90;5.82;;;;;;;8.63;59.80;101453.25;5057052;28;20072;-67
2023/12/06 11:22:59;;;;;;;9.65;6.03;;;;;;;8.59;59.75;101455.47;5062994;28;20072;-67
2023/12/06 11:25:28;;;;;;;12.35;6.47;;;;;;;8.48;60.62;101458.69;5063444;28;20055;-68